PWSweather.com
Personal Weather Stations
Station Observations
KKYCRABO2
Cedar Creek Lake 840 Ky. Hwy. 39 N, Crab Orchard, KY 40419

Cedar Creek Lake 840 Ky. Hwy. 39 NCrab Orchard, KY 40419

Lat: 37.4736234544238, Lon: -84.5120286941528

Elevation: 952

Station Type: TYCON Power TP1080WC Pro

http://kbweather.net/

Latest ConditionsUpdated 2:15:01 AM EDT Wednesday, Aug 24, 2016
Currently Today's Max Today's Min Today's Average
Temperature 66.2°F19.0°C 67.8°F19.9°C 66.2°F19.0°C 67.0°F19.4°C
Dew Point 62.6°F17.0°C 64.4°F18.0°C 62.6°F17.0°C 63.9°F17.7°C
Winds Calm Calm 1.6 mph ESE2.6 kmh ESE - 0.3 mph 0.5 kmh
Wind Gusts -- 3.4 mph5.5 kmh - -
Humidity 89% 92% 89% 90%
Pressure 30.27 in1025.1 mb 30.27 in1025.1 mb 30.27 in1025.1 mb -
Hour Temp Dew Point Humidity Winds Wind Gusts Pressure Precip Precip Rate Daily Precip Total
02:15 AM 66.2°F19.0°C 62.6°F17.0°C 89% Calm Calm -- 30.27 in1025.1 mb 0.00 in0.0 mm 0.00 in0.0 mm 0.00 in0.0 mm
02:10 AM 66.4°F19.1°C 62.6°F17.0°C 89% Calm Calm 1.3 mph2.1 kmh 30.27 in1025.1 mb 0.00 in0.0 mm 0.00 in0.0 mm 0.00 in0.0 mm
02:05 AM 66.4°F19.1°C 62.6°F17.0°C 90% Calm Calm 2.5 mph4.0 kmh 30.27 in1025.1 mb 0.00 in0.0 mm 0.00 in0.0 mm 0.00 in0.0 mm
02:00 AM 66.4°F19.1°C 62.6°F17.0°C 90% 1.6 mph ESE2.6 kmh ESE 2.5 mph4.0 kmh 30.27 in1025.1 mb 0.00 in0.0 mm 0.00 in0.0 mm 0.00 in0.0 mm
01:55 AM 66.2°F19.0°C 62.6°F17.0°C 90% 1.3 mph ESE2.1 kmh ESE 2.5 mph4.0 kmh 30.27 in1025.1 mb 0.00 in0.0 mm 0.00 in0.0 mm 0.00 in0.0 mm
01:50 AM 66.2°F19.0°C 62.6°F17.0°C 90% 0.9 mph ESE1.4 kmh ESE 2.5 mph4.0 kmh 30.27 in1025.1 mb 0.00 in0.0 mm 0.00 in0.0 mm 0.00 in0.0 mm
01:45 AM 66.2°F19.0°C 62.6°F17.0°C 90% Calm Calm 2.0 mph3.2 kmh 30.27 in1025.1 mb 0.00 in0.0 mm 0.00 in0.0 mm 0.00 in0.0 mm
01:40 AM 66.4°F19.1°C 62.6°F17.0°C 89% 0.9 mph ESE1.4 kmh ESE 2.0 mph3.2 kmh 30.27 in1025.1 mb 0.00 in0.0 mm 0.00 in0.0 mm 0.00 in0.0 mm
01:35 AM 66.6°F19.2°C 64.4°F18.0°C 89% Calm Calm -- 30.27 in1025.1 mb 0.00 in0.0 mm 0.00 in0.0 mm 0.00 in0.0 mm
01:30 AM 66.7°F19.3°C 64.4°F18.0°C 90% Calm Calm -- 30.27 in1025.1 mb 0.00 in0.0 mm 0.00 in0.0 mm 0.00 in0.0 mm
01:25 AM 66.7°F19.3°C 64.4°F18.0°C 90% Calm Calm -- 30.27 in1025.1 mb 0.00 in0.0 mm 0.00 in0.0 mm 0.00 in0.0 mm
01:20 AM 66.7°F19.3°C 64.4°F18.0°C 90% Calm Calm 1.6 mph2.6 kmh 30.27 in1025.1 mb 0.00 in0.0 mm 0.00 in0.0 mm 0.00 in0.0 mm
01:15 AM 66.7°F19.3°C 64.4°F18.0°C 89% Calm Calm 1.6 mph2.6 kmh 30.27 in1025.1 mb 0.00 in0.0 mm 0.00 in0.0 mm 0.00 in0.0 mm
01:10 AM 66.9°F19.4°C 64.4°F18.0°C 89% Calm Calm -- 30.27 in1025.1 mb 0.00 in0.0 mm 0.00 in0.0 mm 0.00 in0.0 mm
01:05 AM 67.1°F19.5°C 64.4°F18.0°C 89% Calm Calm 1.3 mph2.1 kmh 30.27 in1025.1 mb 0.00 in0.0 mm 0.00 in0.0 mm 0.00 in0.0 mm
01:00 AM 67.3°F19.6°C 64.4°F18.0°C 89% Calm Calm 1.3 mph2.1 kmh 30.27 in1025.1 mb 0.00 in0.0 mm 0.00 in0.0 mm 0.00 in0.0 mm
12:55 AM 67.5°F19.7°C 64.4°F18.0°C 90% Calm Calm -- 30.27 in1025.1 mb 0.00 in0.0 mm 0.00 in0.0 mm 0.00 in0.0 mm
12:50 AM 67.6°F19.8°C 64.4°F18.0°C 90% Calm Calm -- 30.27 in1025.1 mb 0.00 in0.0 mm 0.00 in0.0 mm 0.00 in0.0 mm
12:45 AM 67.6°F19.8°C 64.4°F18.0°C 91% Calm Calm -- 30.27 in1025.1 mb 0.00 in0.0 mm 0.00 in0.0 mm 0.00 in0.0 mm
12:40 AM 67.6°F19.8°C 64.4°F18.0°C 91% Calm Calm 1.1 mph1.8 kmh 30.27 in1025.1 mb 0.00 in0.0 mm 0.00 in0.0 mm 0.00 in0.0 mm
12:35 AM 67.5°F19.7°C 64.4°F18.0°C 92% Calm Calm 2.2 mph3.5 kmh 30.27 in1025.1 mb 0.00 in0.0 mm 0.00 in0.0 mm 0.00 in0.0 mm
12:30 AM 67.3°F19.6°C 64.4°F18.0°C 91% Calm Calm 2.2 mph3.5 kmh 30.27 in1025.1 mb 0.00 in0.0 mm 0.00 in0.0 mm 0.00 in0.0 mm
12:25 AM 67.3°F19.6°C 64.4°F18.0°C 91% 1.1 mph ESE1.8 kmh ESE 2.0 mph3.2 kmh 30.27 in1025.1 mb 0.00 in0.0 mm 0.00 in0.0 mm 0.00 in0.0 mm
12:20 AM 67.3°F19.6°C 64.4°F18.0°C 90% Calm Calm 2.5 mph4.0 kmh 30.27 in1025.1 mb 0.00 in0.0 mm 0.00 in0.0 mm 0.00 in0.0 mm
12:15 AM 67.5°F19.7°C 64.4°F18.0°C 91% Calm Calm 3.4 mph5.5 kmh 30.27 in1025.1 mb 0.00 in0.0 mm 0.00 in0.0 mm 0.00 in0.0 mm
12:10 AM 67.5°F19.7°C 64.4°F18.0°C 91% 0.9 mph E1.4 kmh E 3.4 mph5.5 kmh 30.27 in1025.1 mb 0.00 in0.0 mm 0.00 in0.0 mm 0.00 in0.0 mm
12:05 AM 67.6°F19.8°C 64.4°F18.0°C 91% 1.3 mph E2.1 kmh E 2.5 mph4.0 kmh 30.27 in1025.1 mb 0.00 in0.0 mm 0.00 in0.0 mm 0.00 in0.0 mm
12:00 AM 67.8°F19.9°C 64.4°F18.0°C 90% Calm Calm 1.1 mph1.8 kmh 30.27 in1025.1 mb 0.00 in0.0 mm 0.00 in0.0 mm 0.00 in0.0 mm